Time;durP1;ratioP1;P1;durP2;ratioP2;P2;SDS_P1;SDS_P2;PMS_P1;PMS_P2;Temp;Humidity;BMP_temperature;BMP_pressure;BME280_temperature;BME280_humidity;BME280_pressure;Samples;Min_cycle;Max_cycle;Signal;HPM_P1;HPM_P2
2021/12/15 00:01:31;;;;;;;27.53;19.70;;;8.90;60.10;;;;;;20724;6847;67565;-83
2021/12/15 00:07:22;;;;;;;34.47;25.13;;;9.00;59.90;;;;;;20515;6847;280343;-82
2021/12/15 00:09:48;;;;;;;32.07;21.50;;;9.30;58.80;;;;;;20719;6847;68255;-82
2021/12/15 00:12:14;;;;;;;30.43;19.83;;;8.90;59.30;;;;;;20734;6847;68445;-82
2021/12/15 00:14:39;;;;;;;34.30;24.50;;;8.90;59.40;;;;;;20525;6847;306852;-82
2021/12/15 00:17:05;;;;;;;32.57;24.67;;;9.00;59.70;;;;;;20520;6847;309172;-82
2021/12/15 00:19:31;;;;;;;30.88;23.30;;;9.20;59.00;;;;;;20524;6847;338332;-82
2021/12/15 00:21:57;;;;;;;32.20;23.47;;;9.60;57.70;;;;;;20516;6847;312901;-86
2021/12/15 00:24:23;;;;;;;27.15;21.87;;;9.60;57.70;;;;;;20514;6847;338787;-82
2021/12/15 00:26:48;;;;;;;28.40;20.03;;;9.80;57.40;;;;;;20724;6847;67959;-82
2021/12/15 00:29:14;;;;;;;25.88;20.85;;;9.60;57.60;;;;;;20515;6847;339157;-82
2021/12/15 00:31:42;;;;;;;27.57;18.60;;;9.60;57.90;;;;;;20734;6847;68140;-82
2021/12/15 00:34:07;;;;;;;29.50;19.10;;;9.40;58.00;;;;;;20734;6847;69103;-82
2021/12/15 00:36:31;;;;;;;26.87;19.00;;;9.10;58.70;;;;;;20733;6847;67592;-82
2021/12/15 00:38:57;;;;;;;26.70;21.07;;;9.00;60.10;;;;;;20514;6847;328465;-82
2021/12/15 00:41:23;;;;;;;26.13;18.73;;;8.90;59.60;;;;;;20731;6847;71118;-82
2021/12/15 00:43:49;;;;;;;26.93;19.60;;;8.80;60.00;;;;;;20729;6847;67953;-82
2021/12/15 00:46:15;;;;;;;33.57;24.60;;;8.80;59.70;;;;;;20514;6847;309297;-82
2021/12/15 00:48:41;;;;;;;29.17;20.57;;;8.90;59.60;;;;;;20738;6847;68025;-82
2021/12/15 00:51:06;;;;;;;32.13;24.17;;;8.90;59.40;;;;;;20513;6847;338727;-82
2021/12/15 00:53:32;;;;;;;25.50;18.90;;;9.00;59.20;;;;;;20734;6847;67516;-82
2021/12/15 00:55:57;;;;;;;28.53;20.43;;;8.90;59.20;;;;;;20775;6847;68904;-82
2021/12/15 00:58:23;;;;;;;28.27;23.67;;;8.70;59.70;;;;;;20516;6847;305153;-82
2021/12/15 01:00:48;;;;;;;26.57;19.43;;;8.90;60.10;;;;;;20729;6847;76165;-83
2021/12/15 01:03:14;;;;;;;31.70;24.50;;;8.80;59.90;;;;;;20519;6847;284312;-82
2021/12/15 01:05:39;;;;;;;29.87;22.57;;;9.00;60.00;;;;;;20738;6845;67989;-82
2021/12/15 01:08:05;;;;;;;40.27;28.43;;;9.00;59.80;;;;;;20524;6846;280503;-82
2021/12/15 01:10:44;;;;;;;39.63;29.63;;;9.10;59.30;;;;;;20518;6847;308725;-82
2021/12/15 01:21:03;;;;;;;40.90;28.17;;;9.00;59.00;;;;;;20673;6847;68417;-82
2021/12/15 01:23:29;;;;;;;43.58;33.30;;;8.90;58.80;;;;;;20503;6847;280627;-82
2021/12/15 01:25:55;;;;;;;44.63;33.75;;;8.90;58.90;;;;;;20484;6847;279507;-82
2021/12/15 01:28:20;;;;;;;43.23;28.27;;;9.20;58.60;;;;;;20705;6847;67908;-82
2021/12/15 01:30:46;;;;;;;40.63;25.93;;;9.00;58.50;;;;;;20723;6847;73201;-82
2021/12/15 01:33:11;;;;;;;46.20;33.05;;;8.70;59.10;;;;;;20499;6847;313619;-82
2021/12/15 01:35:37;;;;;;;43.50;27.93;;;8.80;59.60;;;;;;20727;6847;68127;-82
2021/12/15 01:38:02;;;;;;;46.83;34.38;;;8.70;59.70;;;;;;20540;6847;287985;-82
2021/12/15 01:40:39;;;;;;;44.20;34.20;;;8.80;59.60;;;;;;20522;6847;326983;-82
2021/12/15 01:42:53;;;;;;;40.78;28.73;;;9.00;59.20;;;;;;20647;6847;68007;-82
2021/12/15 01:48:05;;;;;;;44.05;33.30;;;9.00;59.50;;;;;;20526;6847;280651;-83
2021/12/15 01:50:31;;;;;;;43.60;29.33;;;9.20;58.80;;;;;;20725;6847;68094;-83
2021/12/15 01:52:56;;;;;;;40.40;27.37;;;9.10;58.70;;;;;;20744;6847;68508;-85
2021/12/15 01:55:22;;;;;;;46.00;33.73;;;8.80;59.20;;;;;;20536;6847;338740;-83
2021/12/15 01:57:47;;;;;;;45.40;28.60;;;8.80;60.20;;;;;;20747;6847;68068;-85
2021/12/15 02:00:13;;;;;;;46.45;33.20;;;8.70;59.70;;;;;;20546;6847;342618;-85
2021/12/15 02:02:39;;;;;;;40.37;29.30;;;8.80;59.90;;;;;;20754;6847;67945;-86
2021/12/15 02:05:04;;;;;;;47.28;34.78;;;8.70;59.80;;;;;;20544;6847;338270;-87
2021/12/15 02:07:30;;;;;;;43.63;28.57;;;8.80;60.00;;;;;;20770;6847;69927;-87
2021/12/15 02:12:26;;;;;;;42.75;34.13;;;8.90;60.10;;;;;;20599;6847;312813;-87
2021/12/15 02:14:49;;;;;;;44.10;33.73;;;9.10;59.30;;;;;;20549;6847;328698;-87
2021/12/15 02:17:15;;;;;;;42.07;27.67;;;9.40;58.60;;;;;;20778;6845;69675;-88
2021/12/15 02:19:41;;;;;;;45.20;33.17;;;9.20;58.70;;;;;;20555;6846;337902;-86
2021/12/15 02:22:07;;;;;;;43.05;33.45;;;9.20;58.70;;;;;;20542;6847;338763;-88
2021/12/15 02:24:34;;;;;;;38.40;27.98;;;9.40;58.40;;;;;;20767;6847;67559;-87
2021/12/15 02:27:00;;;;;;;42.80;33.33;;;9.20;58.50;;;;;;20539;6847;340702;-85
2021/12/15 02:29:25;;;;;;;39.75;28.10;;;9.10;58.60;;;;;;20756;6847;67484;-85
2021/12/15 02:34:31;;;;;;;41.33;32.17;;;8.80;59.20;;;;;;20556;6847;283363;-87
2021/12/15 02:37:16;;;;;;;41.73;32.47;;;8.90;59.60;;;;;;20521;6847;307835;-87
2021/12/15 02:39:29;;;;;;;34.97;26.33;;;9.10;59.00;;;;;;20735;6847;72129;-85
2021/12/15 02:41:55;;;;;;;29.63;21.90;;;9.00;59.10;;;;;;20765;6847;68457;-85
2021/12/15 02:44:20;;;;;;;37.15;29.83;;;8.70;59.80;;;;;;20542;6847;336426;-87
2021/12/15 02:46:46;;;;;;;36.30;25.90;;;8.80;60.10;;;;;;20757;6847;71206;-86
2021/12/15 02:49:11;;;;;;;36.80;31.03;;;8.80;59.90;;;;;;20539;6847;341665;-85
2021/12/15 02:51:37;;;;;;;36.37;26.37;;;8.90;59.70;;;;;;20747;6847;67991;-85
2021/12/15 02:54:03;;;;;;;36.28;26.45;;;8.70;60.10;;;;;;20746;6847;68928;-86
2021/12/15 02:56:29;;;;;;;34.67;26.10;;;8.70;60.10;;;;;;20740;6847;67977;-86
2021/12/15 02:59:00;;;;;;;35.25;30.25;;;8.50;60.50;;;;;;20544;6847;281405;-85
2021/12/15 03:01:30;;;;;;;36.93;32.13;;;8.70;60.50;;;;;;20541;6847;278686;-86
2021/12/15 03:06:25;;;;;;;41.47;34.13;;;9.30;58.70;;;;;;20544;6847;291660;-86
2021/12/15 03:09:05;;;;;;;37.63;27.27;;;9.30;58.20;;;;;;20727;6847;67922;-85
2021/12/15 03:16:50;;;;;;;43.33;26.97;;;9.50;57.70;;;;;;20760;6847;67967;-85
2021/12/15 03:19:16;;;;;;;33.63;25.67;;;9.30;58.00;;;;;;20758;6847;67511;-87
2021/12/15 03:21:41;;;;;;;36.92;30.67;;;9.00;58.80;;;;;;20550;6847;336542;-85
2021/12/15 03:24:13;;;;;;;34.43;26.23;;;9.10;59.00;;;;;;20764;6847;72371;-85
2021/12/15 03:26:39;;;;;;;31.57;24.30;;;9.00;58.90;;;;;;20757;6847;68626;-85
2021/12/15 03:34:49;;;;;;;36.70;27.00;;;8.80;60.00;;;;;;20769;6847;67507;-87
2021/12/15 03:37:21;;;;;;;34.23;25.23;;;8.80;59.90;;;;;;20751;6847;67550;-88
2021/12/15 03:39:33;;;;;;;36.00;23.50;;;8.60;60.10;;;;;;20744;6847;67908;-85
2021/12/15 03:42:03;;;;;;;36.87;29.57;;;8.50;60.60;;;;;;20557;6847;279903;-85
2021/12/15 03:44:24;;;;;;;36.23;30.67;;;8.60;59.90;;;;;;20545;6847;308254;-86
2021/12/15 03:46:50;;;;;;;36.17;26.73;;;9.00;59.60;;;;;;20767;6847;67968;-86
2021/12/15 03:49:16;;;;;;;36.90;26.73;;;8.80;59.70;;;;;;20760;6847;67953;-83
2021/12/15 03:51:41;;;;;;;40.63;32.10;;;8.80;59.70;;;;;;20543;6847;308687;-86
2021/12/15 03:54:07;;;;;;;35.30;26.05;;;8.90;59.70;;;;;;20764;6847;72810;-86
2021/12/15 03:56:35;;;;;;;39.03;25.60;;;8.80;59.50;;;;;;20770;6847;67915;-85
2021/12/15 03:58:58;;;;;;;34.95;25.00;;;8.60;60.00;;;;;;20759;6847;67551;-85
2021/12/15 04:01:24;;;;;;;35.33;24.75;;;8.50;60.40;;;;;;20774;6847;70012;-85
2021/12/15 04:03:49;;;;;;;33.95;24.75;;;8.30;60.60;;;;;;20767;6847;67555;-83
2021/12/15 04:06:16;;;;;;;18.00;14.83;;;8.10;61.30;;;;;;20742;6847;73133;-81
2021/12/15 04:08:41;;;;;;;10.67;9.67;;;8.10;61.30;;;;;;20732;6847;68009;-84
2021/12/15 04:11:07;;;;;;;12.43;10.57;;;8.00;61.40;;;;;;20733;6847;67971;-83
2021/12/15 04:13:33;;;;;;;14.87;13.37;;;8.20;60.80;;;;;;20511;6847;278751;-83
2021/12/15 04:16:05;;;;;;;21.08;18.98;;;8.20;60.40;;;;;;20516;6847;309642;-83
2021/12/15 04:18:24;;;;;;;22.95;20.65;;;8.60;59.20;;;;;;20498;6847;338239;-83
2021/12/15 04:20:50;;;;;;;21.60;17.65;;;9.00;58.30;;;;;;20720;6847;68113;-83
2021/12/15 04:23:21;;;;;;;21.13;17.97;;;8.90;58.20;;;;;;20736;6847;67560;-84
2021/12/15 04:25:47;;;;;;;16.27;13.73;;;8.70;58.80;;;;;;20747;6847;67859;-84
2021/12/15 04:28:19;;;;;;;3.45;3.25;;;8.50;59.30;;;;;;20770;6847;75329;-84
2021/12/15 04:30:45;;;;;;;3.93;3.63;;;8.40;59.70;;;;;;20738;6847;68565;-84
2021/12/15 04:33:12;;;;;;;16.63;14.57;;;8.20;60.00;;;;;;20739;6847;68061;-84
2021/12/15 04:35:35;;;;;;;17.40;15.80;;;8.10;60.20;;;;;;20521;6847;289577;-84
2021/12/15 04:38:01;;;;;;;17.73;16.02;;;8.40;60.20;;;;;;20536;6847;338058;-84
2021/12/15 04:40:26;;;;;;;19.05;17.20;;;8.80;59.10;;;;;;20522;6845;282755;-84
2021/12/15 04:42:54;;;;;;;15.82;14.10;;;9.00;57.40;;;;;;20736;6846;67746;-85
2021/12/15 04:45:18;;;;;;;14.27;12.80;;;9.00;57.40;;;;;;20762;6847;67788;-84
2021/12/15 04:47:45;;;;;;;12.33;11.13;;;8.60;58.70;;;;;;20732;6847;68438;-84
2021/12/15 04:50:10;;;;;;;9.67;8.97;;;8.60;58.50;;;;;;20522;6847;278824;-84
2021/12/15 04:52:36;;;;;;;5.67;5.23;;;8.70;57.70;;;;;;20744;6847;67926;-84
2021/12/15 04:55:02;;;;;;;7.22;6.72;;;8.70;57.70;;;;;;20743;6847;90109;-84
2021/12/15 04:57:27;;;;;;;10.05;9.13;;;8.60;58.00;;;;;;20732;6847;68087;-84
2021/12/15 04:59:52;;;;;;;7.73;7.13;;;8.40;58.70;;;;;;20526;6847;308730;-84
2021/12/15 05:02:18;;;;;;;7.90;7.40;;;8.60;57.70;;;;;;20527;6847;308700;-84
2021/12/15 05:04:44;;;;;;;4.43;4.13;;;8.80;56.30;;;;;;20735;6847;68313;-84
2021/12/15 05:07:10;;;;;;;5.67;5.27;;;8.80;56.30;;;;;;20520;6847;308731;-85
2021/12/15 05:09:35;;;;;;;5.27;4.97;;;8.90;55.90;;;;;;20733;6847;67974;-84
2021/12/15 05:12:01;;;;;;;17.73;15.83;;;8.80;56.10;;;;;;20728;6847;67578;-84
2021/12/15 05:14:26;;;;;;;22.73;19.67;;;8.60;56.70;;;;;;20734;6847;68571;-84
2021/12/15 05:16:52;;;;;;;26.63;23.83;;;8.40;57.50;;;;;;20520;6847;313069;-84
2021/12/15 05:19:18;;;;;;;23.83;20.17;;;8.60;58.80;;;;;;20723;6847;90484;-85
2021/12/15 05:21:44;;;;;;;26.90;23.12;;;8.80;58.40;;;;;;20523;6847;308606;-84
2021/12/15 05:26:54;;;;;;;24.50;21.83;;;8.70;58.80;;;;;;20538;6847;283280;-84
2021/12/15 05:29:20;;;;;;;24.42;21.90;;;8.90;58.00;;;;;;20528;6847;294755;-83
2021/12/15 05:31:46;;;;;;;23.43;19.47;;;9.20;57.60;;;;;;20780;6847;67749;-83
2021/12/15 05:34:11;;;;;;;26.50;20.30;;;9.10;57.60;;;;;;20742;6847;68488;-83
2021/12/15 05:36:37;;;;;;;26.27;23.48;;;8.80;58.10;;;;;;20541;6847;343029;-83
2021/12/15 05:39:05;;;;;;;27.20;21.42;;;8.90;58.10;;;;;;20747;6847;67928;-84
2021/12/15 05:41:28;;;;;;;26.73;23.83;;;8.80;58.10;;;;;;20528;6847;280182;-85
2021/12/15 05:43:53;;;;;;;26.33;23.53;;;8.90;58.00;;;;;;20536;6847;315540;-84
2021/12/15 05:46:19;;;;;;;28.97;25.37;;;9.10;57.30;;;;;;20527;6847;308778;-85
2021/12/15 05:48:45;;;;;;;21.10;18.92;;;9.40;56.80;;;;;;20530;6847;308630;-85
2021/12/15 05:51:10;;;;;;;23.67;21.23;;;9.50;56.20;;;;;;20530;6845;342764;-84
2021/12/15 05:53:36;;;;;;;25.07;22.47;;;9.60;55.80;;;;;;20530;6846;309055;-86
2021/12/15 05:56:01;;;;;;;21.75;18.48;;;9.70;55.60;;;;;;20745;6847;69204;-87
2021/12/15 05:58:28;;;;;;;19.63;17.67;;;9.40;55.90;;;;;;20531;6847;333361;-85
2021/12/15 06:00:52;;;;;;;16.35;14.85;;;9.40;56.30;;;;;;20570;6847;307843;-86
2021/12/15 06:03:18;;;;;;;12.47;10.27;;;9.50;55.70;;;;;;20752;6847;72356;-85
2021/12/15 06:05:44;;;;;;;12.60;11.60;;;9.30;55.60;;;;;;20526;6847;310002;-85
2021/12/15 06:08:09;;;;;;;12.80;11.70;;;9.30;55.70;;;;;;20520;6847;338331;-83
2021/12/15 06:10:35;;;;;;;10.80;9.80;;;9.40;55.10;;;;;;20745;6847;68020;-86
2021/12/15 06:13:02;;;;;;;9.80;9.10;;;9.20;55.30;;;;;;20526;6847;279504;-86
2021/12/15 06:15:26;;;;;;;6.43;6.03;;;9.20;55.00;;;;;;20531;6847;340905;-86
2021/12/15 06:17:51;;;;;;;5.30;5.00;;;9.30;54.20;;;;;;20719;6847;67912;-90
2021/12/15 06:20:17;;;;;;;6.17;5.67;;;9.10;54.40;;;;;;20728;6847;67944;-87
2021/12/15 06:22:45;;;;;;;5.57;5.17;;;8.80;55.30;;;;;;20726;6847;67490;-88
2021/12/15 06:25:08;;;;;;;6.40;6.00;;;8.50;56.00;;;;;;20517;6847;308199;-88
2021/12/15 06:27:36;;;;;;;5.20;4.90;;;8.60;55.80;;;;;;20727;6847;67934;-88
2021/12/15 06:30:00;;;;;;;6.47;6.03;;;8.70;56.10;;;;;;20522;6847;339693;-85
2021/12/15 06:32:27;;;;;;;5.70;5.20;;;8.70;55.60;;;;;;20744;6847;68451;-87
2021/12/15 06:34:51;;;;;;;5.12;4.82;;;8.70;55.70;;;;;;20779;6847;67886;-91
2021/12/15 06:37:17;;;;;;;5.40;5.00;;;8.50;56.20;;;;;;20758;6847;68182;-85
2021/12/15 06:39:42;;;;;;;4.93;4.62;;;8.30;56.70;;;;;;20731;6847;67484;-86
2021/12/15 06:42:08;;;;;;;4.53;4.23;;;8.20;57.10;;;;;;20734;6847;72245;-87
2021/12/15 06:44:34;;;;;;;5.30;5.00;;;8.00;57.40;;;;;;20519;6847;309062;-87
2021/12/15 07:00:32;;;;;;;6.00;5.60;;;8.10;57.00;;;;;;20728;6847;68472;-88
2021/12/15 07:02:59;;;;;;;6.00;5.60;;;7.80;58.30;;;;;;20727;6845;68138;-88
2021/12/15 07:05:24;;;;;;;6.50;6.10;;;7.80;57.50;;;;;;20731;6846;68827;-87
2021/12/15 07:07:51;;;;;;;5.70;5.30;;;7.70;58.00;;;;;;20736;6847;67534;-91
2021/12/15 07:10:16;;;;;;;5.73;5.43;;;7.70;58.20;;;;;;20518;6847;310822;-92
2021/12/15 07:12:42;;;;;;;5.40;5.00;;;7.90;57.40;;;;;;20732;6847;70493;-88
2021/12/15 07:15:08;;;;;;;5.60;5.30;;;8.20;56.70;;;;;;20564;6847;284950;-87
2021/12/15 07:17:36;;;;;;;6.47;6.07;;;8.20;56.70;;;;;;20581;6847;279389;-95
2021/12/15 07:22:33;;;;;;;4.90;4.60;;;8.50;55.50;;;;;;20736;6847;67483;-88
2021/12/15 07:24:53;;;;;;;4.27;3.97;;;8.30;55.90;;;;;;20702;6847;72977;-90
2021/12/15 07:27:19;;;;;;;4.53;4.17;;;8.10;56.50;;;;;;20733;6847;67943;-86
2021/12/15 07:29:44;;;;;;;4.03;3.80;;;7.90;56.80;;;;;;20739;6847;91369;-86
2021/12/15 07:32:10;;;;;;;4.22;3.92;;;7.80;57.20;;;;;;20738;6847;71795;-90
2021/12/15 07:34:36;;;;;;;3.73;3.53;;;7.60;57.40;;;;;;20747;6847;70724;-87
2021/12/15 07:37:02;;;;;;;7.07;6.57;;;7.50;57.90;;;;;;20766;6847;67957;-91
2021/12/15 07:39:28;;;;;;;4.00;3.70;;;7.50;57.90;;;;;;20811;6847;68450;-90
2021/12/15 07:42:04;;;;;;;4.27;3.97;;;7.40;58.10;;;;;;20739;6847;69287;-86
2021/12/15 07:44:19;;;;;;;4.27;4.03;;;7.40;58.10;;;;;;20697;6847;75201;-87
2021/12/15 07:46:46;;;;;;;4.00;3.77;;;7.30;58.20;;;;;;20727;6847;67803;-86
2021/12/15 07:49:12;;;;;;;4.13;3.90;;;7.30;58.20;;;;;;20723;6847;68072;-90
2021/12/15 07:51:38;;;;;;;4.70;4.40;;;7.30;58.30;;;;;;20728;6847;68062;-90
2021/12/15 07:54:02;;;;;;;5.47;5.07;;;7.30;58.50;;;;;;20508;6847;282554;-86
2021/12/15 07:56:28;;;;;;;5.72;5.43;;;7.50;57.90;;;;;;20523;6847;301597;-90
2021/12/15 07:58:54;;;;;;;5.30;4.90;;;8.00;56.80;;;;;;20728;6847;67943;-88
2021/12/15 08:01:20;;;;;;;5.72;5.43;;;8.00;56.40;;;;;;20517;6847;314767;-91
2021/12/15 08:03:50;;;;;;;5.23;4.83;;;8.20;56.00;;;;;;20739;6847;67922;-91
2021/12/15 08:06:10;;;;;;;4.85;4.55;;;8.20;56.00;;;;;;20731;6847;69466;-87
2021/12/15 08:08:36;;;;;;;4.77;4.37;;;8.00;56.30;;;;;;20739;6847;68007;-90
2021/12/15 08:11:01;;;;;;;5.17;4.83;;;7.80;56.70;;;;;;20731;6847;67975;-90
2021/12/15 08:13:28;;;;;;;7.23;6.83;;;7.90;57.00;;;;;;20522;6847;313550;-91
2021/12/15 08:15:53;;;;;;;7.40;6.90;;;7.90;57.00;;;;;;20739;6846;68027;-87
2021/12/15 08:18:19;;;;;;;9.32;8.65;;;8.10;56.30;;;;;;20530;6847;338728;-87
2021/12/15 08:20:45;;;;;;;7.00;6.40;;;8.20;56.30;;;;;;20744;6847;69843;-87
2021/12/15 08:23:11;;;;;;;5.77;5.10;;;8.20;56.20;;;;;;20737;6847;68005;-91
2021/12/15 08:25:37;;;;;;;5.87;5.57;;;8.00;56.50;;;;;;20533;6847;309089;-87
2021/12/15 08:28:02;;;;;;;6.83;6.43;;;8.20;56.00;;;;;;20527;6847;295459;-87
2021/12/15 08:30:27;;;;;;;6.27;5.87;;;8.50;55.00;;;;;;20742;6847;67923;-87
2021/12/15 08:32:53;;;;;;;7.10;6.70;;;8.50;55.10;;;;;;20558;6847;309091;-93
2021/12/15 08:35:18;;;;;;;5.27;4.97;;;8.50;54.50;;;;;;20752;6847;68009;-87
2021/12/15 08:37:44;;;;;;;7.00;6.57;;;8.50;54.60;;;;;;20506;6847;341533;-89
2021/12/15 08:40:10;;;;;;;9.00;8.13;;;8.50;54.50;;;;;;20538;6847;309501;-88
2021/12/15 08:42:36;;;;;;;9.07;8.37;;;8.80;54.20;;;;;;20592;6847;311312;-89
2021/12/15 08:45:01;;;;;;;5.43;5.13;;;9.00;53.50;;;;;;20731;6847;72309;-87
2021/12/15 08:47:27;;;;;;;5.65;5.25;;;8.80;53.60;;;;;;20521;6847;279934;-90
2021/12/15 08:49:53;;;;;;;8.60;7.90;;;8.80;53.20;;;;;;20733;6847;67938;-88
2021/12/15 08:52:18;;;;;;;7.35;6.85;;;8.60;53.40;;;;;;20520;6847;313650;-91
2021/12/15 08:54:43;;;;;;;5.97;5.57;;;8.60;53.10;;;;;;20731;6847;67752;-91
2021/12/15 08:57:10;;;;;;;6.40;6.00;;;8.50;53.20;;;;;;20523;6847;326107;-87
2021/12/15 08:59:35;;;;;;;5.37;5.07;;;8.70;52.50;;;;;;20527;6847;279576;-87
2021/12/15 09:02:01;;;;;;;5.37;5.07;;;8.70;52.50;;;;;;20519;6847;338706;-86
2021/12/15 09:04:26;;;;;;;5.15;4.85;;;8.90;52.20;;;;;;20516;6847;308194;-94
2021/12/15 09:06:52;;;;;;;5.07;4.73;;;9.10;51.60;;;;;;20739;6847;67774;-87
2021/12/15 09:09:20;;;;;;;4.85;4.55;;;8.90;51.80;;;;;;20527;6847;313631;-87
2021/12/15 09:11:44;;;;;;;6.32;5.90;;;8.70;53.20;;;;;;20747;6847;67471;-87
2021/12/15 09:14:12;;;;;;;4.30;4.00;;;8.70;52.50;;;;;;20739;6847;68475;-88
2021/12/15 09:16:35;;;;;;;4.10;3.90;;;8.40;53.20;;;;;;20717;6847;68563;-92
2021/12/15 09:19:01;;;;;;;4.70;4.40;;;8.20;53.80;;;;;;20527;6847;284279;-87
2021/12/15 09:21:27;;;;;;;4.83;4.53;;;8.60;53.00;;;;;;20512;6847;309384;-87
2021/12/15 09:23:52;;;;;;;4.63;4.33;;;8.60;53.00;;;;;;20723;6847;68059;-89
2021/12/15 09:26:20;;;;;;;4.70;4.30;;;8.50;53.00;;;;;;20520;6845;279492;-93
2021/12/15 09:28:44;;;;;;;5.10;4.70;;;8.60;52.60;;;;;;20517;6846;313209;-91
2021/12/15 09:31:09;;;;;;;4.50;4.20;;;8.80;52.00;;;;;;20741;6847;67552;-87
2021/12/15 09:33:35;;;;;;;4.53;4.23;;;8.70;52.20;;;;;;20734;6847;68340;-93
2021/12/15 09:36:00;;;;;;;4.93;4.63;;;8.40;52.80;;;;;;20521;6847;309732;-90
2021/12/15 09:38:26;;;;;;;4.30;4.00;;;8.40;52.50;;;;;;20516;6847;301178;-87
2021/12/15 09:40:51;;;;;;;4.50;4.20;;;8.60;51.70;;;;;;20522;6847;342218;-90
2021/12/15 09:43:17;;;;;;;3.92;3.72;;;8.80;51.20;;;;;;20525;6847;309160;-87
2021/12/15 09:45:51;;;;;;;4.70;4.40;;;9.00;51.00;;;;;;20812;6847;67482;-93
2021/12/15 10:04:30;;;;;;;3.47;3.17;;;7.70;54.00;;;;;;20745;6847;68689;-86
2021/12/15 10:17:22;;;;;;;3.57;3.33;;;7.80;54.10;;;;;;20746;6847;67586;-87
2021/12/15 10:17:45;;;;;;;4.60;4.30;;;7.80;54.00;;;;;;20550;6847;301704;-89
2021/12/15 10:20:08;;;;;;;4.73;4.33;;;8.50;52.80;;;;;;20548;6847;279456;-86
2021/12/15 10:22:45;;;;;;;5.40;5.10;;;8.70;51.90;;;;;;20506;6847;330221;-86
2021/12/15 10:25:06;;;;;;;4.40;4.10;;;8.70;51.90;;;;;;20708;6847;67491;-86
2021/12/15 10:27:48;;;;;;;4.37;4.07;;;8.70;52.10;;;;;;20692;6847;67544;-86
2021/12/15 10:30:31;;;;;;;4.33;4.00;;;8.50;52.50;;;;;;20731;6847;67530;-91
2021/12/15 10:32:58;;;;;;;4.80;4.40;;;8.30;53.00;;;;;;20728;6847;71911;-91
2021/12/15 10:35:28;;;;;;;5.50;5.10;;;8.30;52.40;;;;;;20509;6847;338709;-86
2021/12/15 10:38:26;;;;;;;5.50;5.10;;;8.20;52.30;;;;;;20516;6845;294813;-85
2021/12/15 10:40:52;;;;;;;5.33;4.83;;;8.60;51.70;;;;;;20726;6846;90007;-85
2021/12/15 10:43:18;;;;;;;5.07;4.67;;;8.60;52.00;;;;;;20733;6847;68068;-86
2021/12/15 10:45:54;;;;;;;6.07;5.67;;;8.50;52.10;;;;;;20514;6847;278975;-86
2021/12/15 10:48:34;;;;;;;5.40;5.00;;;8.50;52.10;;;;;;20735;6847;68078;-84
2021/12/15 10:50:49;;;;;;;5.20;4.80;;;8.30;52.70;;;;;;20755;6847;74277;-91
2021/12/15 10:53:15;;;;;;;5.10;4.70;;;8.30;52.70;;;;;;20730;6847;68027;-85
2021/12/15 10:55:40;;;;;;;4.43;4.10;;;8.20;53.00;;;;;;20691;6847;68862;-85
2021/12/15 10:58:32;;;;;;;4.50;4.20;;;8.10;53.50;;;;;;20740;6847;67590;-85
2021/12/15 11:00:57;;;;;;;5.70;5.30;;;8.00;53.80;;;;;;20527;6847;309457;-85
2021/12/15 11:03:23;;;;;;;5.20;4.70;;;8.30;53.40;;;;;;20733;6847;90986;-81
2021/12/15 11:05:49;;;;;;;5.90;5.28;;;8.40;53.30;;;;;;20722;6847;67969;-84
2021/12/15 11:08:14;;;;;;;6.33;5.83;;;8.30;54.10;;;;;;20559;6847;338363;-87
2021/12/15 11:10:40;;;;;;;7.07;6.47;;;8.80;52.00;;;;;;20497;6847;295962;-85
2021/12/15 11:13:13;;;;;;;6.07;5.57;;;8.80;52.00;;;;;;20730;6847;68495;-85
2021/12/15 11:15:42;;;;;;;6.60;6.00;;;8.80;52.00;;;;;;20727;6847;68401;-85
2021/12/15 11:18:15;;;;;;;6.53;5.93;;;8.60;52.40;;;;;;20725;6847;67553;-85
2021/12/15 11:20:39;;;;;;;9.03;8.30;;;8.40;53.00;;;;;;20507;6847;310004;-85
2021/12/15 11:23:08;;;;;;;7.87;7.18;;;8.60;52.40;;;;;;20517;6847;283937;-84
2021/12/15 11:25:44;;;;;;;8.13;7.43;;;9.00;52.20;;;;;;20540;6847;308789;-84
2021/12/15 11:28:32;;;;;;;6.93;6.23;;;9.30;51.70;;;;;;20734;6847;68326;-87
2021/12/15 11:30:58;;;;;;;7.33;6.57;;;9.20;51.60;;;;;;20727;6847;68061;-85
2021/12/15 11:33:23;;;;;;;8.67;7.83;;;8.90;52.10;;;;;;20514;6847;280573;-85
2021/12/15 11:36:12;;;;;;;7.77;7.03;;;8.90;51.80;;;;;;20649;6847;67929;-85
2021/12/15 11:38:37;;;;;;;7.13;6.40;;;8.90;52.10;;;;;;20701;6847;72791;-85
2021/12/15 11:41:13;;;;;;;8.40;7.60;;;8.70;52.60;;;;;;20507;6847;325825;-84
2021/12/15 11:43:48;;;;;;;9.10;8.40;;;8.80;52.70;;;;;;20515;6847;309524;-84
2021/12/15 11:46:27;;;;;;;7.65;7.05;;;9.10;51.40;;;;;;20516;6847;279536;-85
2021/12/15 11:48:55;;;;;;;5.93;5.53;;;9.40;50.60;;;;;;20733;6845;68580;-84
2021/12/15 11:51:39;;;;;;;6.80;6.20;;;9.20;50.90;;;;;;20725;6846;68635;-84
2021/12/15 11:54:02;;;;;;;7.07;6.47;;;9.00;51.70;;;;;;20767;6847;71485;-83
2021/12/15 11:56:31;;;;;;;6.40;5.80;;;8.80;52.40;;;;;;20702;6847;70136;-86
2021/12/15 11:59:00;;;;;;;6.50;5.90;;;8.50;53.20;;;;;;20726;6847;68472;-86
2021/12/15 12:01:52;;;;;;;8.18;7.57;;;8.50;53.20;;;;;;20494;6847;342608;-85
2021/12/15 12:04:18;;;;;;;8.07;7.37;;;8.70;52.70;;;;;;20513;6847;312608;-85
2021/12/15 12:06:44;;;;;;;8.38;7.78;;;9.10;51.80;;;;;;20526;6847;312605;-85
2021/12/15 12:09:09;;;;;;;8.15;7.45;;;9.40;51.10;;;;;;20519;6847;308793;-83
2021/12/15 12:11:40;;;;;;;6.97;6.37;;;9.70;50.70;;;;;;20744;6847;67904;-86
2021/12/15 12:14:01;;;;;;;8.27;7.55;;;9.50;50.90;;;;;;20518;6847;312955;-85
2021/12/15 12:16:26;;;;;;;8.20;7.60;;;9.60;50.80;;;;;;20519;6847;338256;-85
2021/12/15 12:18:52;;;;;;;7.85;7.25;;;9.70;50.40;;;;;;20517;6847;293565;-85
2021/12/15 12:21:17;;;;;;;7.70;7.07;;;9.90;49.90;;;;;;20711;6847;68107;-85
2021/12/15 12:23:45;;;;;;;9.10;8.40;;;9.70;50.20;;;;;;20575;6847;308701;-85
2021/12/15 12:26:09;;;;;;;9.38;8.45;;;9.70;50.40;;;;;;20722;6847;67564;-88
2021/12/15 12:28:34;;;;;;;9.40;8.57;;;9.50;50.60;;;;;;20739;6847;67526;-85
2021/12/15 12:31:03;;;;;;;7.90;7.10;;;9.30;51.40;;;;;;20728;6847;67714;-85
2021/12/15 12:33:29;;;;;;;9.50;8.73;;;9.10;51.60;;;;;;20544;6847;341690;-85
2021/12/15 12:35:54;;;;;;;8.40;7.53;;;9.10;51.60;;;;;;20738;6847;68108;-86
2021/12/15 12:38:21;;;;;;;7.47;6.87;;;8.90;51.90;;;;;;20708;6847;67516;-85
2021/12/15 12:40:53;;;;;;;7.90;7.40;;;8.90;51.90;;;;;;20491;6847;338306;-85
2021/12/15 12:43:19;;;;;;;7.60;7.00;;;9.00;51.40;;;;;;20729;6847;68003;-86
2021/12/15 12:45:44;;;;;;;9.30;8.48;;;9.00;51.70;;;;;;20484;6847;308291;-85
2021/12/15 12:48:29;;;;;;;8.03;7.43;;;9.10;51.90;;;;;;20478;6847;308965;-85
2021/12/15 12:57:53;;;;;;;10.55;9.85;;;9.40;51.50;;;;;;20467;6847;308753;-85
2021/12/15 12:59:24;;;;;;;8.03;7.43;;;9.50;50.80;;;;;;20757;6847;68349;-85
2021/12/15 13:01:47;;;;;;;6.80;6.20;;;9.40;51.30;;;;;;19900;6846;67995;-85
2021/12/15 13:04:13;;;;;;;8.30;7.70;;;9.10;51.80;;;;;;20522;6846;283571;-85
2021/12/15 13:06:39;;;;;;;7.03;6.53;;;9.10;52.00;;;;;;20733;6847;67699;-85
2021/12/15 13:09:05;;;;;;;12.60;11.40;;;8.90;52.60;;;;;;20723;6847;67783;-86
2021/12/15 13:11:35;;;;;;;9.37;8.53;;;8.90;52.60;;;;;;20725;6847;68499;-85
2021/12/15 13:14:13;;;;;;;9.73;9.03;;;8.70;53.10;;;;;;20518;6847;281340;-86
2021/12/15 13:16:52;;;;;;;8.27;7.67;;;8.90;52.90;;;;;;20520;6847;283275;-85
2021/12/15 13:19:27;;;;;;;7.77;7.17;;;9.30;52.10;;;;;;20706;6847;67971;-86
2021/12/15 13:21:59;;;;;;;6.63;6.10;;;9.30;52.10;;;;;;20724;6847;68022;-86
2021/12/15 13:30:48;;;;;;;7.17;6.67;;;9.00;52.50;;;;;;20662;6847;68997;-85
2021/12/15 13:33:14;;;;;;;7.23;6.73;;;8.70;53.10;;;;;;20731;6847;67503;-84
2021/12/15 13:35:51;;;;;;;8.43;7.83;;;8.50;53.50;;;;;;20516;6847;307201;-85
2021/12/15 13:38:22;;;;;;;6.77;6.20;;;8.70;53.20;;;;;;20751;6847;67496;-83
2021/12/15 13:40:47;;;;;;;7.78;7.18;;;8.80;53.30;;;;;;20316;6918;313577;-86
2021/12/15 13:43:36;;;;;;;7.80;7.20;;;8.90;53.10;;;;;;20515;6918;71276;-84
2021/12/15 13:46:01;;;;;;;8.67;8.07;;;9.00;53.10;;;;;;20305;6918;311631;-83
2021/12/15 13:48:56;;;;;;;6.63;6.23;;;9.10;52.70;;;;;;20514;6918;68468;-84
2021/12/15 13:51:56;;;;;;;7.28;6.85;;;9.20;52.10;;;;;;20308;6918;340950;-85
2021/12/15 13:54:37;;;;;;;6.70;6.10;;;9.20;52.10;;;;;;20515;6918;68540;-90
2021/12/15 13:57:12;;;;;;;6.70;6.30;;;9.10;52.50;;;;;;20313;6918;299124;-86
2021/12/15 13:59:45;;;;;;;12.00;11.18;;;9.20;52.50;;;;;;20326;6918;281567;-88
2021/12/15 14:02:33;;;;;;;9.50;8.80;;;9.40;51.90;;;;;;20572;6918;68369;-90
2021/12/15 14:05:15;;;;;;;6.78;6.28;;;9.30;51.90;;;;;;20304;6918;311681;-86
2021/12/15 14:07:41;;;;;;;5.47;5.07;;;9.40;51.60;;;;;;20518;6918;74215;-92
2021/12/15 14:10:09;;;;;;;6.03;5.73;;;9.20;51.80;;;;;;20319;6918;286014;-87
2021/12/15 14:12:46;;;;;;;7.25;6.65;;;9.40;51.60;;;;;;20323;6916;302359;-87